< Typhoon 199002 1990 Season Typhoon 199004 >
Typhoon 199003 (MARIAN)
General InformationTrack Information on Google MapsDetailed Wind InformationList of All Images || Disaster Info.ResourceGoogle EarthGE AnimationAtom FeedGeoJSON
Detalied Best Track (Time Zone = UTC)
Year Month Day Hour Lat. Long. Pressure (hPa) Wind (kt) Class Image Chart
1990 5 14 06 6.5 121.0 1002 0 2 Image Chart
1990 5 14 12 7.5 120.0 1002 0 2 Image Chart
1990 5 14 18 8.0 119.0 1002 0 2 Image Chart
1990 5 15 00 9.0 118.0 1002 0 2 Image Chart
1990 5 15 06 9.5 117.0 1000 0 2 Image Chart
1990 5 15 12 10.2 116.1 996 40 3 Image Chart
1990 5 15 18 10.8 115.3 992 45 3 Image Chart
1990 5 16 00 11.3 114.4 985 50 4 Image Chart
1990 5 16 06 12.2 113.5 980 55 4 Image Chart
1990 5 16 12 13.1 112.8 975 60 4 Image Chart
1990 5 16 18 13.9 112.5 975 60 4 Image Chart
1990 5 17 00 14.9 112.4 970 65 5 Image Chart
1990 5 17 06 16.0 112.5 970 65 5 Image Chart
1990 5 17 12 17.2 112.7 965 70 5 Image Chart
1990 5 17 18 18.3 113.3 965 70 5 Image Chart
1990 5 18 00 18.9 114.1 965 70 5 Image Chart
1990 5 18 06 20.0 115.3 970 65 5 Image Chart
1990 5 18 12 21.0 116.7 975 60 4 Image Chart
1990 5 18 18 21.8 118.7 980 55 4 Image Chart
1990 5 19 00 22.7 119.9 990 45 3 Image Chart
1990 5 19 06 24.6 122.3 996 40 3 Image Chart
1990 5 19 12 25.5 123.5 1000 0 6 Image Chart
1990 5 19 18 26.0 125.0 1002 0 6 Image Chart
1990 5 20 00 27.0 126.0 1002 0 6 Image Chart
1990 5 20 06 28.0 127.0 1002 0 6 Image Chart
1990 5 20 12 29.0 129.0 1004 0 6 Image Chart
1990 5 20 18 30.0 131.0 1004 0 6 Image Chart
Japan Meteorological Agency Best Track Data | Correction Date : 1992-10-21
< Typhoon 199002 1990 Season Typhoon 199004 >

Help